sensor_id;sensor_type;location;lat;lon;timestamp;pressure;altitude;pressure_sealevel;temperature;humidity
9415;BME280;4746;35.664;139.738;2023-02-13T00:00:58;99927.53;;;15.02;55.08
9415;BME280;4746;35.664;139.738;2023-02-13T00:03:25;99911.28;;;14.97;54.53
9415;BME280;4746;35.664;139.738;2023-02-13T00:05:53;99919.09;;;14.91;55.21
9415;BME280;4746;35.664;139.738;2023-02-13T00:08:20;99905.38;;;14.91;55.42
9415;BME280;4746;35.664;139.738;2023-02-13T00:10:48;99909.69;;;14.89;55.21
9415;BME280;4746;35.664;139.738;2023-02-13T00:13:16;99905.44;;;14.86;55.38
9415;BME280;4746;35.664;139.738;2023-02-13T00:15:44;99917.41;;;14.92;55.75
9415;BME280;4746;35.664;139.738;2023-02-13T00:18:11;99902.59;;;15.03;55.26
9415;BME280;4746;35.664;139.738;2023-02-13T00:20:39;99901.69;;;15.05;54.80
9415;BME280;4746;35.664;139.738;2023-02-13T00:23:06;99888.72;;;15.08;54.93
9415;BME280;4746;35.664;139.738;2023-02-13T00:25:34;99893.09;;;15.06;54.93
9415;BME280;4746;35.664;139.738;2023-02-13T00:28:01;99879.34;;;15.04;54.86
9415;BME280;4746;35.664;139.738;2023-02-13T00:30:29;99886.22;;;15.05;54.74
9415;BME280;4746;35.664;139.738;2023-02-13T00:32:56;99895.66;;;15.06;54.99
9415;BME280;4746;35.664;139.738;2023-02-13T00:35:24;99881.00;;;15.08;55.14
9415;BME280;4746;35.664;139.738;2023-02-13T00:37:54;99877.59;;;15.06;55.72
9415;BME280;4746;35.664;139.738;2023-02-13T00:40:22;99871.59;;;15.04;55.09
9415;BME280;4746;35.664;139.738;2023-02-13T00:42:49;99863.09;;;14.99;55.29
9415;BME280;4746;35.664;139.738;2023-02-13T00:45:19;99873.44;;;14.96;55.29
9415;BME280;4746;35.664;139.738;2023-02-13T00:47:46;99874.38;;;14.92;55.17
9415;BME280;4746;35.664;139.738;2023-02-13T00:50:14;99859.75;;;14.94;54.98
9415;BME280;4746;35.664;139.738;2023-02-13T00:52:42;99866.69;;;14.91;55.16
9415;BME280;4746;35.664;139.738;2023-02-13T00:55:09;99868.38;;;14.90;55.67
9415;BME280;4746;35.664;139.738;2023-02-13T00:57:37;99866.91;;;14.77;56.04
9415;BME280;4746;35.664;139.738;2023-02-13T01:00:05;99865.41;;;14.63;56.19
9415;BME280;4746;35.664;139.738;2023-02-13T01:02:33;99855.63;;;14.83;55.69
9415;BME280;4746;35.664;139.738;2023-02-13T01:05:02;99857.28;;;14.85;56.02
9415;BME280;4746;35.664;139.738;2023-02-13T01:07:30;99848.75;;;14.83;55.65
9415;BME280;4746;35.664;139.738;2023-02-13T01:09:57;99856.53;;;14.79;56.03
9415;BME280;4746;35.664;139.738;2023-02-13T01:12:25;99854.88;;;14.76;56.03
9415;BME280;4746;35.664;139.738;2023-02-13T01:14:52;99833.41;;;14.74;56.18
9415;BME280;4746;35.664;139.738;2023-02-13T01:17:20;99817.13;;;14.72;56.28
9415;BME280;4746;35.664;139.738;2023-02-13T01:19:48;99827.44;;;14.72;56.19
9415;BME280;4746;35.664;139.738;2023-02-13T01:22:16;99832.63;;;14.69;56.37
9415;BME280;4746;35.664;139.738;2023-02-13T01:24:43;99826.66;;;14.66;56.47
9415;BME280;4746;35.664;139.738;2023-02-13T01:27:11;99817.31;;;14.60;56.44
9415;BME280;4746;35.664;139.738;2023-02-13T01:29:38;99806.19;;;14.56;56.25
9415;BME280;4746;35.664;139.738;2023-02-13T01:32:06;99792.44;;;14.57;56.49
9415;BME280;4746;35.664;139.738;2023-02-13T01:34:34;99785.50;;;14.60;56.43
9415;BME280;4746;35.664;139.738;2023-02-13T01:37:01;99773.47;;;14.60;56.34
9415;BME280;4746;35.664;139.738;2023-02-13T01:39:29;99789.81;;;14.58;56.29
9415;BME280;4746;35.664;139.738;2023-02-13T01:41:57;99783.88;;;14.55;56.60
9415;BME280;4746;35.664;139.738;2023-02-13T01:44:48;99780.38;;;14.58;56.01
9415;BME280;4746;35.664;139.738;2023-02-13T01:47:42;99761.50;;;14.57;55.86
9415;BME280;4746;35.664;139.738;2023-02-13T01:56:13;99741.88;;;14.48;55.79
9415;BME280;4746;35.664;139.738;2023-02-13T01:58:41;99742.84;;;14.43;55.82
9415;BME280;4746;35.664;139.738;2023-02-13T02:01:11;99729.97;;;14.40;55.80
9415;BME280;4746;35.664;139.738;2023-02-13T02:07:26;99725.69;;;14.39;55.33
9415;BME280;4746;35.664;139.738;2023-02-13T02:10:10;99730.94;;;14.33;55.02
9415;BME280;4746;35.664;139.738;2023-02-13T02:13:23;99707.19;;;14.16;55.02
9415;BME280;4746;35.664;139.738;2023-02-13T02:15:52;99714.28;;;13.99;55.51
9415;BME280;4746;35.664;139.738;2023-02-13T02:18:23;99692.13;;;13.89;55.53
9415;BME280;4746;35.664;139.738;2023-02-13T02:27:14;99685.56;;;13.67;56.08
9415;BME280;4746;35.664;139.738;2023-02-13T02:42:36;99635.28;;;13.44;57.04
9415;BME280;4746;35.664;139.738;2023-02-13T02:45:34;99624.19;;;13.39;57.09
9415;BME280;4746;35.664;139.738;2023-02-13T02:48:37;99616.50;;;13.37;57.41
9415;BME280;4746;35.664;139.738;2023-02-13T02:52:12;99607.97;;;13.34;57.19
9415;BME280;4746;35.664;139.738;2023-02-13T02:55:04;99608.91;;;13.28;57.78
9415;BME280;4746;35.664;139.738;2023-02-13T02:58:20;99574.63;;;13.26;57.83
9415;BME280;4746;35.664;139.738;2023-02-13T03:01:12;99573.84;;;13.21;58.14
9415;BME280;4746;35.664;139.738;2023-02-13T03:04:00;99569.59;;;13.20;58.18
9415;BME280;4746;35.664;139.738;2023-02-13T03:07:00;99552.44;;;13.19;58.18
9415;BME280;4746;35.664;139.738;2023-02-13T03:09:37;99561.91;;;13.18;58.58
9415;BME280;4746;35.664;139.738;2023-02-13T03:12:29;99543.94;;;13.15;58.61
9415;BME280;4746;35.664;139.738;2023-02-13T03:15:17;99543.97;;;13.12;58.82
9415;BME280;4746;35.664;139.738;2023-02-13T03:17:45;99535.41;;;13.10;58.83
9415;BME280;4746;35.664;139.738;2023-02-13T03:20:52;99530.25;;;13.13;58.73
9415;BME280;4746;35.664;139.738;2023-02-13T03:24:16;99533.75;;;13.09;58.30
9415;BME280;4746;35.664;139.738;2023-02-13T03:33:26;99490.19;;;12.95;58.81
9415;BME280;4746;35.664;139.738;2023-02-13T03:39:19;99487.75;;;12.88;59.52
9415;BME280;4746;35.664;139.738;2023-02-13T03:44:53;99479.91;;;12.97;59.50
9415;BME280;4746;35.664;139.738;2023-02-13T03:47:53;99463.56;;;13.01;59.08
9415;BME280;4746;35.664;139.738;2023-02-13T03:50:24;99449.78;;;13.05;59.32
9415;BME280;4746;35.664;139.738;2023-02-13T03:53:10;99448.13;;;13.01;59.38
9415;BME280;4746;35.664;139.738;2023-02-13T03:55:46;99422.31;;;13.07;59.34
9415;BME280;4746;35.664;139.738;2023-02-13T03:58:43;99425.56;;;13.18;59.30
9415;BME280;4746;35.664;139.738;2023-02-13T04:01:33;99418.78;;;13.14;59.21
9415;BME280;4746;35.664;139.738;2023-02-13T04:04:39;99399.19;;;13.07;59.34
9415;BME280;4746;35.664;139.738;2023-02-13T04:07:15;99390.63;;;13.05;59.11
9415;BME280;4746;35.664;139.738;2023-02-13T04:10:09;99400.13;;;13.01;59.02
9415;BME280;4746;35.664;139.738;2023-02-13T04:16:15;99391.59;;;12.98;59.25
9415;BME280;4746;35.664;139.738;2023-02-13T04:18:48;99387.34;;;12.97;59.94
9415;BME280;4746;35.664;139.738;2023-02-13T04:21:16;99367.66;;;12.96;59.86
9415;BME280;4746;35.664;139.738;2023-02-13T04:23:44;99372.63;;;13.05;59.48
9415;BME280;4746;35.664;139.738;2023-02-13T04:26:22;99370.91;;;13.07;59.18
9415;BME280;4746;35.664;139.738;2023-02-13T04:28:50;99365.81;;;13.02;59.56
9415;BME280;4746;35.664;139.738;2023-02-13T04:31:20;99367.50;;;13.05;59.63
9415;BME280;4746;35.664;139.738;2023-02-13T04:33:47;99364.88;;;13.08;59.94
9415;BME280;4746;35.664;139.738;2023-02-13T04:36:15;99367.47;;;13.08;59.84
9415;BME280;4746;35.664;139.738;2023-02-13T04:38:42;99375.97;;;13.10;59.75
9415;BME280;4746;35.664;139.738;2023-02-13T04:41:11;99344.31;;;13.08;59.55
9415;BME280;4746;35.664;139.738;2023-02-13T04:43:39;99328.88;;;13.08;59.80
9415;BME280;4746;35.664;139.738;2023-02-13T04:46:07;99315.94;;;13.11;59.67
9415;BME280;4746;35.664;139.738;2023-02-13T04:48:34;99313.41;;;13.09;59.67
9415;BME280;4746;35.664;139.738;2023-02-13T04:51:02;99328.84;;;13.09;59.54
9415;BME280;4746;35.664;139.738;2023-02-13T04:53:30;99331.50;;;13.05;60.02
9415;BME280;4746;35.664;139.738;2023-02-13T04:55:57;99324.59;;;13.07;59.83
9415;BME280;4746;35.664;139.738;2023-02-13T04:58:25;99320.19;;;13.13;59.80
9415;BME280;4746;35.664;139.738;2023-02-13T05:00:52;99311.56;;;13.17;59.89
9415;BME280;4746;35.664;139.738;2023-02-13T05:03:20;99311.59;;;13.14;59.46
9415;BME280;4746;35.664;139.738;2023-02-13T05:05:48;99314.25;;;13.10;59.73
9415;BME280;4746;35.664;139.738;2023-02-13T05:08:16;99314.31;;;13.07;59.54
9415;BME280;4746;35.664;139.738;2023-02-13T05:10:44;99310.03;;;13.06;59.78
9415;BME280;4746;35.664;139.738;2023-02-13T05:13:11;99315.16;;;13.09;59.79
9415;BME280;4746;35.664;139.738;2023-02-13T05:15:39;99286.91;;;13.06;59.91
9415;BME280;4746;35.664;139.738;2023-02-13T05:18:08;99287.81;;;13.03;59.84
9415;BME280;4746;35.664;139.738;2023-02-13T05:20:36;99295.56;;;13.02;59.89
9415;BME280;4746;35.664;139.738;2023-02-13T05:23:03;99307.69;;;12.94;59.74
9415;BME280;4746;35.664;139.738;2023-02-13T05:25:50;99306.06;;;12.90;60.02
9415;BME280;4746;35.664;139.738;2023-02-13T05:28:17;99299.19;;;12.89;60.24
9415;BME280;4746;35.664;139.738;2023-02-13T05:31:03;99287.19;;;12.91;60.84
9415;BME280;4746;35.664;139.738;2023-02-13T05:33:31;99282.78;;;12.97;60.43
9415;BME280;4746;35.664;139.738;2023-02-13T05:35:58;99282.66;;;13.03;60.15
9415;BME280;4746;35.664;139.738;2023-02-13T05:38:26;99286.97;;;13.03;60.14
9415;BME280;4746;35.664;139.738;2023-02-13T05:40:53;99281.88;;;13.00;60.45
9415;BME280;4746;35.664;139.738;2023-02-13T05:43:21;99279.38;;;12.97;60.46
9415;BME280;4746;35.664;139.738;2023-02-13T05:45:48;99293.94;;;12.96;60.38
9415;BME280;4746;35.664;139.738;2023-02-13T05:48:18;99300.84;;;12.93;60.54
9415;BME280;4746;35.664;139.738;2023-02-13T05:50:46;99302.53;;;12.94;60.85
9415;BME280;4746;35.664;139.738;2023-02-13T05:53:14;99300.84;;;12.93;60.68
9415;BME280;4746;35.664;139.738;2023-02-13T05:55:41;99300.03;;;12.91;60.75
9415;BME280;4746;35.664;139.738;2023-02-13T05:58:09;99300.91;;;12.90;60.49
9415;BME280;4746;35.664;139.738;2023-02-13T06:00:37;99306.06;;;12.90;60.84
9415;BME280;4746;35.664;139.738;2023-02-13T06:03:05;99292.31;;;12.91;61.09
9415;BME280;4746;35.664;139.738;2023-02-13T06:05:33;99287.13;;;12.94;60.58
9415;BME280;4746;35.664;139.738;2023-02-13T06:08:00;99291.38;;;12.95;60.76
9415;BME280;4746;35.664;139.738;2023-02-13T06:10:28;99300.88;;;12.91;60.86
9415;BME280;4746;35.664;139.738;2023-02-13T06:12:55;99288.06;;;12.90;60.84
9415;BME280;4746;35.664;139.738;2023-02-13T06:15:23;99272.66;;;12.88;60.87
9415;BME280;4746;35.664;139.738;2023-02-13T06:17:50;99279.50;;;12.88;61.40
9415;BME280;4746;35.664;139.738;2023-02-13T06:20:18;99261.47;;;12.89;61.30
9415;BME280;4746;35.664;139.738;2023-02-13T06:22:55;99289.75;;;12.89;61.05
9415;BME280;4746;35.664;139.738;2023-02-13T06:25:23;99276.09;;;12.87;61.46
9415;BME280;4746;35.664;139.738;2023-02-13T06:27:50;99265.75;;;12.90;61.25
9415;BME280;4746;35.664;139.738;2023-02-13T06:30:18;99264.06;;;12.89;61.60
9415;BME280;4746;35.664;139.738;2023-02-13T06:32:47;99251.19;;;12.89;61.47
9415;BME280;4746;35.664;139.738;2023-02-13T06:35:15;99264.94;;;12.87;61.42
9415;BME280;4746;35.664;139.738;2023-02-13T06:37:43;99266.69;;;12.85;61.47
9415;BME280;4746;35.664;139.738;2023-02-13T06:40:13;99258.94;;;12.86;61.56
9415;BME280;4746;35.664;139.738;2023-02-13T06:42:45;99259.81;;;12.85;61.29
9415;BME280;4746;35.664;139.738;2023-02-13T06:45:12;99252.16;;;12.82;61.47
9415;BME280;4746;35.664;139.738;2023-02-13T06:47:45;99253.06;;;12.78;61.48
9415;BME280;4746;35.664;139.738;2023-02-13T06:50:15;99251.47;;;12.71;62.10
9415;BME280;4746;35.664;139.738;2023-02-13T06:52:50;99250.56;;;12.74;61.74
9415;BME280;4746;35.664;139.738;2023-02-13T06:55:18;99251.47;;;12.73;61.98
9415;BME280;4746;35.664;139.738;2023-02-13T06:57:47;99254.03;;;12.73;61.79
9415;BME280;4746;35.664;139.738;2023-02-13T07:00:16;99259.19;;;12.71;61.90
9415;BME280;4746;35.664;139.738;2023-02-13T07:02:46;99263.53;;;12.69;61.97
9415;BME280;4746;35.664;139.738;2023-02-13T07:05:14;99256.72;;;12.65;61.91
9415;BME280;4746;35.664;139.738;2023-02-13T07:07:42;99255.06;;;12.63;61.75
9415;BME280;4746;35.664;139.738;2023-02-13T07:10:13;99255.84;;;12.66;61.92
9415;BME280;4746;35.664;139.738;2023-02-13T07:12:41;99252.41;;;12.67;61.96
9415;BME280;4746;35.664;139.738;2023-02-13T07:15:09;99231.94;;;12.64;61.97
9415;BME280;4746;35.664;139.738;2023-02-13T07:17:36;99228.50;;;12.64;61.96
9415;BME280;4746;35.664;139.738;2023-02-13T07:20:06;99226.81;;;12.61;61.71
9415;BME280;4746;35.664;139.738;2023-02-13T07:22:34;99238.00;;;12.59;61.84
9415;BME280;4746;35.664;139.738;2023-02-13T07:25:02;99218.38;;;12.55;61.83
9415;BME280;4746;35.664;139.738;2023-02-13T07:27:29;99219.28;;;12.51;61.43
9415;BME280;4746;35.664;139.738;2023-02-13T07:29:57;99237.34;;;12.48;61.71
9415;BME280;4746;35.664;139.738;2023-02-13T07:32:25;99257.06;;;12.46;61.67
9415;BME280;4746;35.664;139.738;2023-02-13T07:34:52;99238.22;;;12.46;61.90
9415;BME280;4746;35.664;139.738;2023-02-13T07:37:20;99233.13;;;12.44;61.91
9415;BME280;4746;35.664;139.738;2023-02-13T07:39:48;99229.66;;;12.45;61.86
9415;BME280;4746;35.664;139.738;2023-02-13T07:42:15;99236.56;;;12.43;61.87
9415;BME280;4746;35.664;139.738;2023-02-13T07:44:43;99245.97;;;12.43;61.89
9415;BME280;4746;35.664;139.738;2023-02-13T07:47:10;99240.91;;;12.40;62.09
9415;BME280;4746;35.664;139.738;2023-02-13T07:49:38;99250.34;;;12.38;61.86
9415;BME280;4746;35.664;139.738;2023-02-13T07:52:06;99259.75;;;12.39;61.57
9415;BME280;4746;35.664;139.738;2023-02-13T07:54:33;99246.88;;;12.40;61.93
9415;BME280;4746;35.664;139.738;2023-02-13T07:57:04;99257.91;;;12.45;61.87
9415;BME280;4746;35.664;139.738;2023-02-13T07:59:31;99262.25;;;12.43;61.69
9415;BME280;4746;35.664;139.738;2023-02-13T08:01:59;99269.97;;;12.43;61.57
9415;BME280;4746;35.664;139.738;2023-02-13T08:04:26;99257.16;;;12.40;61.43
9415;BME280;4746;35.664;139.738;2023-02-13T08:06:54;99253.78;;;12.38;61.29
9415;BME280;4746;35.664;139.738;2023-02-13T08:09:21;99258.94;;;12.35;61.13
9415;BME280;4746;35.664;139.738;2023-02-13T08:12:08;99280.31;;;12.37;60.97
9415;BME280;4746;35.664;139.738;2023-02-13T08:14:36;99274.34;;;12.35;60.87
9415;BME280;4746;35.664;139.738;2023-02-13T08:17:04;99265.88;;;12.30;61.29
9415;BME280;4746;35.664;139.738;2023-02-13T08:19:31;99259.03;;;12.29;60.58
9415;BME280;4746;35.664;139.738;2023-02-13T08:21:59;99255.63;;;12.27;60.45
9415;BME280;4746;35.664;139.738;2023-02-13T08:24:27;99257.41;;;12.25;60.57
9415;BME280;4746;35.664;139.738;2023-02-13T08:26:55;99256.53;;;12.26;60.22
9415;BME280;4746;35.664;139.738;2023-02-13T08:29:23;99248.84;;;12.23;60.51
9415;BME280;4746;35.664;139.738;2023-02-13T08:31:51;99244.56;;;12.25;60.62
9415;BME280;4746;35.664;139.738;2023-02-13T08:34:18;99256.63;;;12.20;60.37
9415;BME280;4746;35.664;139.738;2023-02-13T08:36:46;99270.28;;;12.21;60.16
9415;BME280;4746;35.664;139.738;2023-02-13T08:39:13;99266.06;;;12.18;59.96
9415;BME280;4746;35.664;139.738;2023-02-13T08:41:41;99277.16;;;12.19;60.21
9415;BME280;4746;35.664;139.738;2023-02-13T08:44:10;99282.28;;;12.19;60.11
9415;BME280;4746;35.664;139.738;2023-02-13T08:46:37;99286.66;;;12.14;59.93
9415;BME280;4746;35.664;139.738;2023-02-13T08:49:05;99298.66;;;12.13;59.91
9415;BME280;4746;35.664;139.738;2023-02-13T08:51:32;99290.94;;;12.13;59.94
9415;BME280;4746;35.664;139.738;2023-02-13T08:54:00;99295.25;;;12.11;60.00
9415;BME280;4746;35.664;139.738;2023-02-13T08:56:28;99310.72;;;12.08;59.88
9415;BME280;4746;35.664;139.738;2023-02-13T08:58:55;99307.31;;;12.06;59.78
9415;BME280;4746;35.664;139.738;2023-02-13T09:01:23;99328.72;;;12.05;60.03
9415;BME280;4746;35.664;139.738;2023-02-13T09:03:50;99310.78;;;12.02;59.85
9415;BME280;4746;35.664;139.738;2023-02-13T09:06:18;99313.25;;;12.10;59.81
9415;BME280;4746;35.664;139.738;2023-02-13T09:08:46;99319.34;;;12.01;59.98
9415;BME280;4746;35.664;139.738;2023-02-13T09:11:13;99320.28;;;11.96;60.18
9415;BME280;4746;35.664;139.738;2023-02-13T09:13:41;99328.03;;;11.93;60.14
9415;BME280;4746;35.664;139.738;2023-02-13T09:16:10;99338.25;;;11.94;60.23
9415;BME280;4746;35.664;139.738;2023-02-13T09:18:37;99351.97;;;11.93;60.31
9415;BME280;4746;35.664;139.738;2023-02-13T09:21:10;99340.00;;;11.92;60.21
9415;BME280;4746;35.664;139.738;2023-02-13T09:23:39;99340.00;;;11.92;60.14
9415;BME280;4746;35.664;139.738;2023-02-13T09:26:13;99349.38;;;11.95;60.11
9415;BME280;4746;35.664;139.738;2023-02-13T09:28:41;99355.41;;;11.92;59.95
9415;BME280;4746;35.664;139.738;2023-02-13T09:31:13;99372.50;;;11.93;60.49
9415;BME280;4746;35.664;139.738;2023-02-13T09:33:46;99373.38;;;11.92;60.17
9415;BME280;4746;35.664;139.738;2023-02-13T09:36:19;99379.38;;;11.93;60.46
9415;BME280;4746;35.664;139.738;2023-02-13T09:38:57;99359.63;;;11.95;60.34
9415;BME280;4746;35.664;139.738;2023-02-13T09:41:45;99396.47;;;11.92;60.30
9415;BME280;4746;35.664;139.738;2023-02-13T09:47:32;99381.06;;;11.92;60.30
9415;BME280;4746;35.664;139.738;2023-02-13T09:50:28;99371.66;;;11.93;60.45
9415;BME280;4746;35.664;139.738;2023-02-13T09:52:59;99384.53;;;11.88;60.64
9415;BME280;4746;35.664;139.738;2023-02-13T09:55:54;99389.59;;;11.94;60.45
9415;BME280;4746;35.664;139.738;2023-02-13T09:59:03;99392.22;;;11.90;60.23
9415;BME280;4746;35.664;139.738;2023-02-13T10:01:43;99388.03;;;11.84;60.20
9415;BME280;4746;35.664;139.738;2023-02-13T10:06:54;99397.47;;;11.81;60.72
9415;BME280;4746;35.664;139.738;2023-02-13T10:15:36;99425.66;;;11.85;60.41
9415;BME280;4746;35.664;139.738;2023-02-13T10:18:27;99439.34;;;11.84;60.43
9415;BME280;4746;35.664;139.738;2023-02-13T10:21:02;99436.81;;;11.83;60.81
9415;BME280;4746;35.664;139.738;2023-02-13T10:23:48;99437.59;;;11.86;60.70
9415;BME280;4746;35.664;139.738;2023-02-13T10:26:34;99441.91;;;11.86;60.71
9415;BME280;4746;35.664;139.738;2023-02-13T10:29:23;99437.59;;;11.86;60.88
9415;BME280;4746;35.664;139.738;2023-02-13T10:32:15;99441.00;;;11.88;61.13
9415;BME280;4746;35.664;139.738;2023-02-13T10:34:45;99444.44;;;11.87;61.22
9415;BME280;4746;35.664;139.738;2023-02-13T10:37:17;99444.44;;;11.87;60.93
9415;BME280;4746;35.664;139.738;2023-02-13T10:39:51;99433.28;;;11.90;61.05
9415;BME280;4746;35.664;139.738;2023-02-13T10:42:30;99437.50;;;11.95;60.90
9415;BME280;4746;35.664;139.738;2023-02-13T10:51:13;99432.41;;;11.94;60.76
9415;BME280;4746;35.664;139.738;2023-02-13T10:57:20;99434.91;;;11.97;60.98
9415;BME280;4746;35.664;139.738;2023-02-13T11:02:21;99447.81;;;11.91;60.56
9415;BME280;4746;35.664;139.738;2023-02-13T11:07:47;99429.94;;;11.83;60.85
9415;BME280;4746;35.664;139.738;2023-02-13T11:10:21;99424.75;;;11.86;60.72
9415;BME280;4746;35.664;139.738;2023-02-13T11:12:51;99427.31;;;11.86;60.60
9415;BME280;4746;35.664;139.738;2023-02-13T11:15:29;99428.16;;;11.90;60.64
9415;BME280;4746;35.664;139.738;2023-02-13T11:18:14;99427.25;;;11.92;60.55
9415;BME280;4746;35.664;139.738;2023-02-13T11:20:46;99424.78;;;11.88;60.80
9415;BME280;4746;35.664;139.738;2023-02-13T11:26:10;99415.34;;;11.88;60.57
9415;BME280;4746;35.664;139.738;2023-02-13T11:28:54;99413.63;;;11.90;60.61
9415;BME280;4746;35.664;139.738;2023-02-13T11:31:33;99408.47;;;11.90;60.84
9415;BME280;4746;35.664;139.738;2023-02-13T11:34:25;99393.03;;;11.93;60.36
9415;BME280;4746;35.664;139.738;2023-02-13T11:37:17;99388.75;;;11.95;60.17
9415;BME280;4746;35.664;139.738;2023-02-13T11:39:47;99387.91;;;11.93;59.96
9415;BME280;4746;35.664;139.738;2023-02-13T11:42:23;99370.72;;;11.98;60.01
9415;BME280;4746;35.664;139.738;2023-02-13T11:45:22;99350.09;;;12.04;59.89
9415;BME280;4746;35.664;139.738;2023-02-13T11:47:52;99360.53;;;11.92;59.88
9415;BME280;4746;35.664;139.738;2023-02-13T11:50:35;99355.41;;;11.92;60.32
9415;BME280;4746;35.664;139.738;2023-02-13T11:53:31;99352.81;;;11.95;60.09
9415;BME280;4746;35.664;139.738;2023-02-13T11:56:14;99342.47;;;11.98;60.26
9415;BME280;4746;35.664;139.738;2023-02-13T11:58:44;99362.16;;;11.99;60.33
9415;BME280;4746;35.664;139.738;2023-02-13T12:04:16;99344.88;;;12.13;60.13
9415;BME280;4746;35.664;139.738;2023-02-13T12:07:30;99343.94;;;12.17;60.29
9415;BME280;4746;35.664;139.738;2023-02-13T12:15:22;99343.84;;;12.26;59.77
9415;BME280;4746;35.664;139.738;2023-02-13T12:24:29;99353.22;;;12.27;59.07
9415;BME280;4746;35.664;139.738;2023-02-13T12:44:53;99334.66;;;12.09;57.86
9415;BME280;4746;35.664;139.738;2023-02-13T12:54:33;99334.75;;;12.01;58.10
9415;BME280;4746;35.664;139.738;2023-02-13T13:00:57;99332.06;;;12.10;57.76
9415;BME280;4746;35.664;139.738;2023-02-13T13:09:54;99335.53;;;12.09;57.06
9415;BME280;4746;35.664;139.738;2023-02-13T13:12:54;99330.38;;;12.08;56.96
9415;BME280;4746;35.664;139.738;2023-02-13T13:16:01;99332.97;;;12.06;56.78
9415;BME280;4746;35.664;139.738;2023-02-13T13:26:59;99336.63;;;11.87;56.79
9415;BME280;4746;35.664;139.738;2023-02-13T13:29:55;99338.34;;;11.88;56.74
9415;BME280;4746;35.664;139.738;2023-02-13T13:32:31;99340.06;;;11.86;56.57
9415;BME280;4746;35.664;139.738;2023-02-13T13:35:03;99331.50;;;11.87;56.73
9415;BME280;4746;35.664;139.738;2023-02-13T13:40:56;99347.78;;;11.86;56.23
9415;BME280;4746;35.664;139.738;2023-02-13T13:44:14;99355.44;;;11.89;56.22
9415;BME280;4746;35.664;139.738;2023-02-13T13:49:58;99352.94;;;11.85;55.94
9415;BME280;4746;35.664;139.738;2023-02-13T13:52:35;99359.81;;;11.81;55.97
9415;BME280;4746;35.664;139.738;2023-02-13T14:01:24;99376.94;;;11.78;55.39
9415;BME280;4746;35.664;139.738;2023-02-13T14:09:42;99383.09;;;11.67;55.30
9415;BME280;4746;35.664;139.738;2023-02-13T14:12:49;99361.66;;;11.71;55.40
9415;BME280;4746;35.664;139.738;2023-02-13T14:15:51;99377.03;;;11.71;55.43
9415;BME280;4746;35.664;139.738;2023-02-13T14:18:24;99373.66;;;11.67;55.40
9415;BME280;4746;35.664;139.738;2023-02-13T14:21:02;99365.97;;;11.69;55.12
9415;BME280;4746;35.664;139.738;2023-02-13T14:29:20;99353.88;;;11.77;54.60
9415;BME280;4746;35.664;139.738;2023-02-13T14:32:16;99350.47;;;11.75;54.25
9415;BME280;4746;35.664;139.738;2023-02-13T14:34:55;99336.03;;;11.69;54.76
9415;BME280;4746;35.664;139.738;2023-02-13T14:37:36;99319.75;;;11.72;54.49
9415;BME280;4746;35.664;139.738;2023-02-13T14:45:55;99364.34;;;11.62;53.91
9415;BME280;4746;35.664;139.738;2023-02-13T14:48:48;99359.22;;;11.59;53.83
9415;BME280;4746;35.664;139.738;2023-02-13T14:58:35;99357.72;;;11.37;53.82
9415;BME280;4746;35.664;139.738;2023-02-13T15:03:46;99368.22;;;11.11;53.51
9415;BME280;4746;35.664;139.738;2023-02-13T15:06:27;99371.56;;;11.21;53.41
9415;BME280;4746;35.664;139.738;2023-02-13T15:12:37;99364.75;;;11.17;53.41
9415;BME280;4746;35.664;139.738;2023-02-13T15:15:34;99356.25;;;11.12;53.28
9415;BME280;4746;35.664;139.738;2023-02-13T15:18:10;99364.84;;;11.07;52.78
9415;BME280;4746;35.664;139.738;2023-02-13T15:20:42;99350.38;;;11.00;52.80
9415;BME280;4746;35.664;139.738;2023-02-13T15:23:31;99357.22;;;10.98;52.41
9415;BME280;4746;35.664;139.738;2023-02-13T15:26:03;99346.19;;;10.91;51.43
9415;BME280;4746;35.664;139.738;2023-02-13T15:28:33;99342.81;;;10.85;51.31
9415;BME280;4746;35.664;139.738;2023-02-13T15:31:17;99355.66;;;10.82;51.19
9415;BME280;4746;35.664;139.738;2023-02-13T15:33:50;99357.41;;;10.77;50.69
9415;BME280;4746;35.664;139.738;2023-02-13T15:36:24;99356.56;;;10.75;50.16
9415;BME280;4746;35.664;139.738;2023-02-13T15:39:03;99323.25;;;10.75;49.81
9415;BME280;4746;35.664;139.738;2023-02-13T15:41:42;99347.16;;;10.75;49.81
9415;BME280;4746;35.664;139.738;2023-02-13T15:44:23;99348.91;;;10.72;49.25
9415;BME280;4746;35.664;139.738;2023-02-13T15:46:54;99358.34;;;10.65;48.92
9415;BME280;4746;35.664;139.738;2023-02-13T15:49:26;99376.28;;;10.61;48.87
9415;BME280;4746;35.664;139.738;2023-02-13T15:54:52;99377.16;;;10.58;48.05
9415;BME280;4746;35.664;139.738;2023-02-13T15:57:22;99364.41;;;10.54;47.96
9415;BME280;4746;35.664;139.738;2023-02-13T15:59:54;99366.97;;;10.52;47.60
9415;BME280;4746;35.664;139.738;2023-02-13T16:02:53;99366.97;;;10.52;47.98
9415;BME280;4746;35.664;139.738;2023-02-13T16:05:35;99370.41;;;10.48;47.74
9415;BME280;4746;35.664;139.738;2023-02-13T16:08:30;99366.16;;;10.46;47.76
9415;BME280;4746;35.664;139.738;2023-02-13T16:14:23;99397.75;;;10.40;47.42
9415;BME280;4746;35.664;139.738;2023-02-13T16:17:16;99397.78;;;10.38;47.69
9415;BME280;4746;35.664;139.738;2023-02-13T16:19:59;99399.50;;;10.36;47.36
9415;BME280;4746;35.664;139.738;2023-02-13T16:22:52;99397.78;;;10.35;47.47
9415;BME280;4746;35.664;139.738;2023-02-13T16:26:06;99396.13;;;10.34;47.24
9415;BME280;4746;35.664;139.738;2023-02-13T16:28:46;99403.78;;;10.31;47.09
9415;BME280;4746;35.664;139.738;2023-02-13T16:31:17;99373.94;;;10.30;46.82
9415;BME280;4746;35.664;139.738;2023-02-13T16:33:54;99400.41;;;10.30;46.59
9415;BME280;4746;35.664;139.738;2023-02-13T16:36:29;99393.59;;;10.28;45.95
9415;BME280;4746;35.664;139.738;2023-02-13T16:39:52;99409.78;;;10.31;46.22
9415;BME280;4746;35.664;139.738;2023-02-13T16:42:20;99406.44;;;10.16;46.06
9415;BME280;4746;35.664;139.738;2023-02-13T16:44:47;99407.28;;;10.16;45.73